createdAt,value
2018-07-13T00:02:01.139Z,20.42
2018-07-13T00:06:04.616Z,20.40
2018-07-13T00:10:08.073Z,20.39
2018-07-13T00:14:27.062Z,20.36
2018-07-13T00:18:30.887Z,20.28
2018-07-13T00:22:34.379Z,20.23
2018-07-13T00:26:38.531Z,20.18
2018-07-13T00:30:41.991Z,20.11
2018-07-13T00:34:45.481Z,20.06
2018-07-13T00:38:48.939Z,20.04
2018-07-13T00:42:52.443Z,20.00
2018-07-13T00:46:55.911Z,19.99
2018-07-13T00:50:59.362Z,19.97
2018-07-13T00:55:02.816Z,19.93
2018-07-13T00:59:06.363Z,19.94
2018-07-13T01:03:10.771Z,19.97
2018-07-13T01:07:14.229Z,19.99
2018-07-13T01:11:17.776Z,19.97
2018-07-13T01:15:21.217Z,19.92
2018-07-13T01:19:24.654Z,19.86
2018-07-13T01:23:29.167Z,19.82
2018-07-13T01:27:32.634Z,19.81
2018-07-13T01:31:36.070Z,19.77
2018-07-13T01:35:39.559Z,19.71
2018-07-13T01:39:42.998Z,19.67
2018-07-13T01:43:46.500Z,19.64
2018-07-13T01:47:49.989Z,19.62
2018-07-13T01:51:53.493Z,19.59
2018-07-13T01:55:56.986Z,19.56
2018-07-13T02:00:00.410Z,19.54
2018-07-13T02:04:03.898Z,19.51
2018-07-13T02:08:07.363Z,19.50
2018-07-13T02:12:10.926Z,19.48
2018-07-13T02:16:14.423Z,19.47
2018-07-13T02:20:17.859Z,19.44
2018-07-13T02:24:21.438Z,19.40
2018-07-13T02:28:24.889Z,19.38
2018-07-13T02:32:28.324Z,19.34
2018-07-13T02:36:31.867Z,19.30
2018-07-13T02:40:35.428Z,19.28
2018-07-13T02:44:38.876Z,19.28
2018-07-13T02:48:42.352Z,19.27
2018-07-13T02:52:45.857Z,19.30
2018-07-13T02:56:49.311Z,19.35
2018-07-13T03:00:52.743Z,19.39
2018-07-13T03:04:56.195Z,19.44
2018-07-13T03:08:59.796Z,19.48
2018-07-13T03:13:03.269Z,19.52
2018-07-13T03:17:06.803Z,19.56
2018-07-13T03:21:10.234Z,19.57
2018-07-13T03:25:13.696Z,19.56
2018-07-13T03:29:17.138Z,19.53
2018-07-13T03:33:20.603Z,19.52
2018-07-13T03:37:24.020Z,19.49
2018-07-13T03:41:27.422Z,19.47
2018-07-13T03:45:30.884Z,19.45
2018-07-13T03:49:34.348Z,19.44
2018-07-13T03:53:37.828Z,19.44
2018-07-13T03:57:41.271Z,19.42
2018-07-13T04:01:44.758Z,19.40
2018-07-13T04:05:48.232Z,19.37
2018-07-13T04:09:51.718Z,19.34
2018-07-13T04:13:55.148Z,19.35
2018-07-13T04:17:58.620Z,19.37
2018-07-13T04:22:02.102Z,19.38
2018-07-13T04:26:05.545Z,19.42
2018-07-13T04:30:08.990Z,19.47
2018-07-13T04:34:12.594Z,19.49
2018-07-13T04:38:16.017Z,19.53
2018-07-13T04:42:19.460Z,19.56
2018-07-13T04:46:22.953Z,19.67
2018-07-13T04:50:26.442Z,19.75
2018-07-13T04:54:29.903Z,19.81
2018-07-13T04:58:33.354Z,19.91
2018-07-13T05:02:37.070Z,20.03
2018-07-13T05:06:40.487Z,20.15
2018-07-13T05:10:43.994Z,20.26
2018-07-13T05:14:47.425Z,20.41
2018-07-13T05:18:50.890Z,20.57
2018-07-13T05:22:54.356Z,20.72
2018-07-13T05:26:57.857Z,20.87
2018-07-13T05:31:01.353Z,21.00
2018-07-13T05:35:04.883Z,21.13
2018-07-13T05:39:10.413Z,21.27
2018-07-13T05:43:13.854Z,21.43
2018-07-13T05:47:17.277Z,21.59
2018-07-13T05:51:20.718Z,21.76
2018-07-13T05:55:24.366Z,21.90
2018-07-13T05:59:28.074Z,22.07
2018-07-13T06:03:32.549Z,22.20
2018-07-13T06:07:36.049Z,22.35
2018-07-13T06:11:39.970Z,22.51
2018-07-13T06:15:43.402Z,22.68
2018-07-13T06:19:47.231Z,22.83
2018-07-13T06:23:50.898Z,22.93
2018-07-13T06:27:54.415Z,23.12
2018-07-13T06:31:57.862Z,23.24
2018-07-13T06:36:01.380Z,23.37
2018-07-13T06:40:04.932Z,23.47
2018-07-13T06:44:08.413Z,23.59
2018-07-13T06:48:11.891Z,23.73
2018-07-13T06:52:15.342Z,23.84
2018-07-13T06:56:18.772Z,23.91
2018-07-13T07:00:57.909Z,24.04
2018-07-13T07:05:15.210Z,24.14
2018-07-13T07:09:18.671Z,24.24
2018-07-13T07:13:31.253Z,24.38
2018-07-13T07:17:34.927Z,24.47
2018-07-13T07:21:38.406Z,24.57
2018-07-13T07:25:41.845Z,24.67
2018-07-13T07:29:45.278Z,24.74
2018-07-13T07:33:48.655Z,24.84
2018-07-13T07:37:52.080Z,24.94
2018-07-13T07:41:55.521Z,25.03
2018-07-13T07:45:59.012Z,25.13
2018-07-13T07:50:02.536Z,25.23
2018-07-13T07:54:06.374Z,25.32
2018-07-13T07:58:09.825Z,25.36
2018-07-13T08:02:13.283Z,25.44
2018-07-13T08:06:16.850Z,25.54
2018-07-13T08:10:20.120Z,25.68
2018-07-13T08:14:23.555Z,25.76
2018-07-13T08:18:26.987Z,25.93
2018-07-13T08:22:40.088Z,26.02
2018-07-13T08:26:43.647Z,26.10
2018-07-13T08:30:51.615Z,26.14
2018-07-13T08:34:55.099Z,26.18
2018-07-13T08:38:58.534Z,26.20
2018-07-13T08:43:01.942Z,26.28
2018-07-13T08:47:05.357Z,26.35
2018-07-13T08:51:08.777Z,26.42
2018-07-13T08:55:13.591Z,26.48
2018-07-13T08:59:17.037Z,26.53
2018-07-13T09:03:20.532Z,26.66
2018-07-13T09:07:24.015Z,26.74
2018-07-13T09:11:27.482Z,26.79
2018-07-13T09:15:30.901Z,26.83
2018-07-13T09:19:34.356Z,26.88
2018-07-13T09:23:37.921Z,26.90
2018-07-13T09:27:41.760Z,27.00
2018-07-13T09:31:45.183Z,27.08
2018-07-13T09:35:48.675Z,27.16
2018-07-13T09:39:52.076Z,27.26
2018-07-13T09:43:55.550Z,27.38
2018-07-13T09:47:58.949Z,27.47
2018-07-13T09:52:02.424Z,27.57
2018-07-13T09:56:05.862Z,27.55
2018-07-13T10:00:11.417Z,27.61
2018-07-13T10:04:14.840Z,27.68
2018-07-13T10:08:18.286Z,27.75
2018-07-13T10:12:21.734Z,27.79
2018-07-13T10:16:25.158Z,27.84
2018-07-13T10:20:28.557Z,27.81
2018-07-13T10:24:33.108Z,27.82
2018-07-13T10:28:38.765Z,27.87
2018-07-13T10:32:43.575Z,28.00
2018-07-13T10:36:52.406Z,28.12
2018-07-13T10:40:55.870Z,28.24
2018-07-13T10:44:59.308Z,28.31
2018-07-13T10:49:02.721Z,28.30
2018-07-13T10:53:06.262Z,28.32
2018-07-13T10:57:09.677Z,28.38
2018-07-13T11:01:13.112Z,28.49
2018-07-13T11:05:16.542Z,28.58
2018-07-13T11:09:19.978Z,28.59
2018-07-13T11:13:23.395Z,28.50
2018-07-13T11:17:26.798Z,28.48
2018-07-13T11:21:30.277Z,28.54
2018-07-13T11:25:33.807Z,28.73
2018-07-13T11:29:37.253Z,28.78
2018-07-13T11:33:40.700Z,28.74
2018-07-13T11:37:44.134Z,28.62
2018-07-13T11:41:47.659Z,28.42
2018-07-13T11:45:51.087Z,28.47
2018-07-13T11:49:54.486Z,28.62
2018-07-13T11:53:58.047Z,28.74
2018-07-13T11:58:01.466Z,28.80
2018-07-13T12:02:04.985Z,28.84
2018-07-13T12:06:08.598Z,28.91
2018-07-13T12:10:12.037Z,28.99
2018-07-13T12:14:15.499Z,29.04
2018-07-13T12:18:18.985Z,29.13
2018-07-13T12:22:22.433Z,29.23
2018-07-13T12:26:25.850Z,29.18
2018-07-13T12:30:29.485Z,29.11
2018-07-13T12:34:32.915Z,29.02
2018-07-13T12:38:36.396Z,29.06
2018-07-13T12:42:39.838Z,29.13
2018-07-13T12:46:43.285Z,29.17
2018-07-13T12:50:46.775Z,29.26
2018-07-13T12:54:50.282Z,29.24
2018-07-13T12:58:53.762Z,29.05
2018-07-13T13:02:57.212Z,28.90
2018-07-13T13:07:00.629Z,28.83
2018-07-13T13:11:04.049Z,28.89
2018-07-13T13:15:07.849Z,29.05
2018-07-13T13:19:11.281Z,29.14
2018-07-13T13:23:14.786Z,29.27
2018-07-13T13:27:18.248Z,29.37
2018-07-13T13:31:21.715Z,29.42
2018-07-13T13:35:25.150Z,29.28
2018-07-13T13:39:28.591Z,29.21
2018-07-13T13:43:32.064Z,29.10
2018-07-13T13:47:35.487Z,28.99
2018-07-13T13:51:38.998Z,28.90
2018-07-13T13:55:42.422Z,28.76
2018-07-13T13:59:45.900Z,28.58
2018-07-13T14:03:49.396Z,28.38
2018-07-13T14:07:52.810Z,28.21
2018-07-13T14:11:56.287Z,28.11
2018-07-13T14:15:59.709Z,28.01
2018-07-13T14:20:03.123Z,27.91
2018-07-13T14:24:06.648Z,27.90
2018-07-13T14:28:10.094Z,27.83
2018-07-13T14:32:13.509Z,27.77
2018-07-13T14:36:16.976Z,27.52
2018-07-13T14:40:20.421Z,27.29
2018-07-13T14:44:23.814Z,27.14
2018-07-13T14:48:27.278Z,27.08
2018-07-13T14:52:30.925Z,27.04
2018-07-13T14:56:34.521Z,27.07
2018-07-13T15:00:37.931Z,27.12
2018-07-13T15:04:41.420Z,27.14
2018-07-13T15:08:44.897Z,27.14
2018-07-13T15:12:48.313Z,27.06
2018-07-13T15:16:51.779Z,26.90
2018-07-13T15:20:55.210Z,26.70
2018-07-13T15:24:58.678Z,26.55
2018-07-13T15:29:02.085Z,26.39
2018-07-13T15:33:05.561Z,26.31
2018-07-13T15:37:09.002Z,26.29
2018-07-13T15:41:12.416Z,26.30
2018-07-13T15:45:15.851Z,26.34
2018-07-13T15:49:19.306Z,26.36
2018-07-13T15:53:22.743Z,26.38
2018-07-13T15:57:26.178Z,26.41
2018-07-13T16:01:29.594Z,26.40
2018-07-13T16:05:33.077Z,26.34
2018-07-13T16:09:36.510Z,26.27
2018-07-13T16:13:39.937Z,26.20
2018-07-13T16:17:43.620Z,26.06
2018-07-13T16:21:47.036Z,26.00
2018-07-13T16:25:50.622Z,25.89
2018-07-13T16:29:54.057Z,25.75
2018-07-13T16:33:57.532Z,25.67
2018-07-13T16:38:00.947Z,25.64
2018-07-13T16:42:04.365Z,25.62
2018-07-13T16:46:07.809Z,25.62
2018-07-13T16:50:11.224Z,25.60
2018-07-13T16:54:14.738Z,25.59
2018-07-13T16:58:18.178Z,25.55
2018-07-13T17:02:21.636Z,25.54
2018-07-13T17:06:25.092Z,25.52
2018-07-13T17:10:28.517Z,25.52
2018-07-13T17:14:31.966Z,25.49
2018-07-13T17:18:35.399Z,25.50
2018-07-13T17:22:38.855Z,25.51
2018-07-13T17:26:42.288Z,25.50
2018-07-13T17:30:45.699Z,25.49
2018-07-13T17:34:49.191Z,25.46
2018-07-13T17:38:52.625Z,25.42
2018-07-13T17:42:56.113Z,25.35
2018-07-13T17:46:59.508Z,25.27
2018-07-13T17:51:02.924Z,25.19
2018-07-13T17:55:06.375Z,25.13
2018-07-13T17:59:09.833Z,25.10
2018-07-13T18:03:13.287Z,25.09
2018-07-13T18:07:16.824Z,25.05
2018-07-13T18:11:20.282Z,25.01
2018-07-13T18:15:23.934Z,24.96
2018-07-13T18:19:27.393Z,24.94
2018-07-13T18:23:30.833Z,24.91
2018-07-13T18:27:34.254Z,24.86
2018-07-13T18:31:37.676Z,24.81
2018-07-13T18:35:41.178Z,24.80
2018-07-13T18:39:44.704Z,24.78
2018-07-13T18:43:48.193Z,24.77
2018-07-13T18:47:52.000Z,24.76
2018-07-13T18:51:55.772Z,24.73
2018-07-13T18:55:59.239Z,24.71
2018-07-13T19:00:02.637Z,24.65
2018-07-13T19:04:06.099Z,24.62
2018-07-13T19:08:09.537Z,24.60
2018-07-13T19:12:13.006Z,24.56
2018-07-13T19:16:16.437Z,24.50
2018-07-13T19:20:19.952Z,24.40
2018-07-13T19:24:23.414Z,24.30
2018-07-13T19:28:26.839Z,24.23
2018-07-13T19:32:30.423Z,24.19
2018-07-13T19:36:33.932Z,24.17
2018-07-13T19:40:37.348Z,24.14
2018-07-13T19:44:41.032Z,24.10
2018-07-13T19:48:44.464Z,24.07
2018-07-13T19:52:48.260Z,24.01
2018-07-13T19:56:51.691Z,23.94
2018-07-13T20:00:55.118Z,23.90
2018-07-13T20:04:58.545Z,23.83
2018-07-13T20:09:02.041Z,23.78
2018-07-13T20:13:05.462Z,23.75
2018-07-13T20:17:08.905Z,23.69
2018-07-13T20:21:12.343Z,23.65
2018-07-13T20:25:15.801Z,23.60
2018-07-13T20:29:19.304Z,23.55
2018-07-13T20:33:22.762Z,23.50
2018-07-13T20:37:26.207Z,23.44
2018-07-13T20:41:29.724Z,23.39
2018-07-13T20:45:33.231Z,23.35
2018-07-13T20:49:36.657Z,23.30
2018-07-13T20:53:40.101Z,23.25
2018-07-13T20:57:43.540Z,23.20
2018-07-13T21:01:47.000Z,23.16
2018-07-13T21:05:50.406Z,23.11
2018-07-13T21:09:53.835Z,23.08
2018-07-13T21:13:57.282Z,23.06
2018-07-13T21:18:00.705Z,23.03
2018-07-13T21:22:04.113Z,22.99
2018-07-13T21:26:07.539Z,22.94
2018-07-13T21:30:10.987Z,22.91
2018-07-13T21:34:14.437Z,22.89
2018-07-13T21:38:17.917Z,22.86
2018-07-13T21:42:21.395Z,22.81
2018-07-13T21:46:24.910Z,22.74
2018-07-13T21:50:28.364Z,22.68
2018-07-13T21:54:31.799Z,22.58
2018-07-13T21:58:35.217Z,22.53
2018-07-13T22:02:38.753Z,22.50
2018-07-13T22:06:42.318Z,22.44
2018-07-13T22:10:45.804Z,22.34
2018-07-13T22:14:49.270Z,22.29
2018-07-13T22:18:52.716Z,22.26
2018-07-13T22:22:56.152Z,22.26
2018-07-13T22:26:59.618Z,22.24
2018-07-13T22:31:03.089Z,22.19
2018-07-13T22:35:06.694Z,22.16
2018-07-13T22:39:10.121Z,22.12
2018-07-13T22:43:13.547Z,22.08
2018-07-13T22:47:16.987Z,22.03
2018-07-13T22:51:20.467Z,21.95
2018-07-13T22:55:24.004Z,21.89
2018-07-13T22:59:27.487Z,21.84
2018-07-13T23:03:32.006Z,21.79
2018-07-13T23:07:35.442Z,21.75
2018-07-13T23:11:38.910Z,21.72
2018-07-13T23:15:42.381Z,21.72
2018-07-13T23:19:45.846Z,21.69
2018-07-13T23:23:49.260Z,21.66
2018-07-13T23:27:52.695Z,21.63
2018-07-13T23:35:58.577Z,21.61
2018-07-13T23:40:02.006Z,21.59
2018-07-13T23:44:05.443Z,21.60
2018-07-13T23:48:08.855Z,21.59
2018-07-13T23:52:12.338Z,21.59
2018-07-13T23:56:15.849Z,21.59
